sensor_id;sensor_type;location;lat;lon;timestamp;P1;durP1;ratioP1;P2;durP2;ratioP2
826;SDS011;395;48.132;11.608;2023-02-01T00:01:26;3.77;;;3.10;;
826;SDS011;395;48.132;11.608;2023-02-01T00:03:52;5.03;;;3.53;;
826;SDS011;395;48.132;11.608;2023-02-01T00:06:18;4.63;;;3.47;;
826;SDS011;395;48.132;11.608;2023-02-01T00:08:43;3.77;;;3.00;;
826;SDS011;395;48.132;11.608;2023-02-01T00:11:10;4.77;;;2.97;;
826;SDS011;395;48.132;11.608;2023-02-01T00:13:38;4.28;;;3.70;;
826;SDS011;395;48.132;11.608;2023-02-01T00:16:09;4.70;;;3.00;;
826;SDS011;395;48.132;11.608;2023-02-01T00:18:42;4.18;;;2.70;;
826;SDS011;395;48.132;11.608;2023-02-01T00:21:12;5.00;;;3.65;;
826;SDS011;395;48.132;11.608;2023-02-01T00:23:42;3.20;;;2.90;;
826;SDS011;395;48.132;11.608;2023-02-01T00:26:11;4.40;;;2.70;;
826;SDS011;395;48.132;11.608;2023-02-01T00:28:43;3.20;;;2.53;;
826;SDS011;395;48.132;11.608;2023-02-01T00:31:09;6.10;;;2.75;;
826;SDS011;395;48.132;11.608;2023-02-01T00:33:34;3.17;;;2.80;;
826;SDS011;395;48.132;11.608;2023-02-01T00:36:01;3.90;;;3.10;;
826;SDS011;395;48.132;11.608;2023-02-01T00:38:28;3.47;;;2.28;;
826;SDS011;395;48.132;11.608;2023-02-01T00:41:01;2.75;;;2.05;;
826;SDS011;395;48.132;11.608;2023-02-01T00:43:28;2.72;;;2.25;;
826;SDS011;395;48.132;11.608;2023-02-01T00:45:56;3.80;;;2.80;;
826;SDS011;395;48.132;11.608;2023-02-01T00:48:21;3.53;;;2.73;;
826;SDS011;395;48.132;11.608;2023-02-01T00:50:47;3.53;;;2.77;;
826;SDS011;395;48.132;11.608;2023-02-01T00:53:13;6.53;;;3.67;;
826;SDS011;395;48.132;11.608;2023-02-01T00:55:38;3.73;;;2.93;;
826;SDS011;395;48.132;11.608;2023-02-01T00:58:04;7.00;;;3.77;;
826;SDS011;395;48.132;11.608;2023-02-01T01:00:31;3.55;;;2.95;;
826;SDS011;395;48.132;11.608;2023-02-01T01:02:57;5.38;;;3.20;;
826;SDS011;395;48.132;11.608;2023-02-01T01:05:23;3.40;;;2.97;;
826;SDS011;395;48.132;11.608;2023-02-01T01:07:49;3.73;;;3.00;;
826;SDS011;395;48.132;11.608;2023-02-01T01:10:15;4.10;;;3.10;;
826;SDS011;395;48.132;11.608;2023-02-01T01:12:41;4.00;;;3.30;;
826;SDS011;395;48.132;11.608;2023-02-01T01:15:07;4.10;;;3.13;;
826;SDS011;395;48.132;11.608;2023-02-01T01:17:33;4.82;;;3.20;;
826;SDS011;395;48.132;11.608;2023-02-01T01:19:58;5.63;;;3.80;;
826;SDS011;395;48.132;11.608;2023-02-01T01:22:24;5.90;;;3.60;;
826;SDS011;395;48.132;11.608;2023-02-01T01:24:50;5.77;;;3.87;;
826;SDS011;395;48.132;11.608;2023-02-01T01:27:15;4.33;;;3.33;;
826;SDS011;395;48.132;11.608;2023-02-01T01:29:47;4.72;;;3.90;;
826;SDS011;395;48.132;11.608;2023-02-01T01:32:13;4.03;;;3.43;;
826;SDS011;395;48.132;11.608;2023-02-01T01:34:39;4.47;;;3.60;;
826;SDS011;395;48.132;11.608;2023-02-01T01:37:04;5.43;;;3.87;;
826;SDS011;395;48.132;11.608;2023-02-01T01:39:30;6.97;;;4.10;;
826;SDS011;395;48.132;11.608;2023-02-01T01:41:56;4.37;;;3.87;;
826;SDS011;395;48.132;11.608;2023-02-01T01:47:25;5.13;;;4.20;;
826;SDS011;395;48.132;11.608;2023-02-01T01:50:14;5.03;;;3.90;;
826;SDS011;395;48.132;11.608;2023-02-01T01:52:43;5.60;;;3.50;;
826;SDS011;395;48.132;11.608;2023-02-01T01:55:13;5.50;;;4.40;;
826;SDS011;395;48.132;11.608;2023-02-01T01:57:42;5.18;;;3.85;;
826;SDS011;395;48.132;11.608;2023-02-01T02:00:13;8.40;;;5.00;;
826;SDS011;395;48.132;11.608;2023-02-01T02:02:43;5.97;;;4.82;;
826;SDS011;395;48.132;11.608;2023-02-01T02:05:11;5.63;;;4.53;;
826;SDS011;395;48.132;11.608;2023-02-01T02:07:39;6.90;;;5.18;;
826;SDS011;395;48.132;11.608;2023-02-01T02:10:08;5.53;;;4.70;;
826;SDS011;395;48.132;11.608;2023-02-01T02:12:39;6.32;;;4.60;;
826;SDS011;395;48.132;11.608;2023-02-01T02:15:08;6.15;;;4.65;;
826;SDS011;395;48.132;11.608;2023-02-01T02:17:37;6.80;;;5.70;;
826;SDS011;395;48.132;11.608;2023-02-01T02:26:29;6.30;;;4.80;;
826;SDS011;395;48.132;11.608;2023-02-01T02:32:21;6.25;;;5.00;;
826;SDS011;395;48.132;11.608;2023-02-01T02:43:05;5.10;;;4.55;;
826;SDS011;395;48.132;11.608;2023-02-01T02:46:29;8.70;;;4.40;;
826;SDS011;395;48.132;11.608;2023-02-01T02:49:39;6.25;;;4.30;;
826;SDS011;395;48.132;11.608;2023-02-01T02:52:13;5.95;;;4.60;;
826;SDS011;395;48.132;11.608;2023-02-01T02:55:00;7.13;;;4.53;;
826;SDS011;395;48.132;11.608;2023-02-01T02:57:40;7.07;;;4.93;;
826;SDS011;395;48.132;11.608;2023-02-01T03:00:31;6.28;;;4.55;;
826;SDS011;395;48.132;11.608;2023-02-01T03:03:17;4.80;;;4.40;;
826;SDS011;395;48.132;11.608;2023-02-01T03:06:01;5.40;;;4.03;;
826;SDS011;395;48.132;11.608;2023-02-01T03:08:28;7.33;;;4.33;;
826;SDS011;395;48.132;11.608;2023-02-01T03:22:02;4.75;;;4.25;;
826;SDS011;395;48.132;11.608;2023-02-01T03:24:18;6.80;;;4.47;;
826;SDS011;395;48.132;11.608;2023-02-01T03:26:58;5.47;;;4.00;;
826;SDS011;395;48.132;11.608;2023-02-01T03:29:32;6.93;;;4.90;;
826;SDS011;395;48.132;11.608;2023-02-01T03:32:09;4.55;;;3.78;;
826;SDS011;395;48.132;11.608;2023-02-01T03:34:34;5.20;;;4.17;;
826;SDS011;395;48.132;11.608;2023-02-01T03:37:10;5.10;;;4.20;;
826;SDS011;395;48.132;11.608;2023-02-01T03:42:49;4.85;;;3.90;;
826;SDS011;395;48.132;11.608;2023-02-01T03:45:23;5.22;;;4.22;;
826;SDS011;395;48.132;11.608;2023-02-01T03:48:05;5.32;;;4.25;;
826;SDS011;395;48.132;11.608;2023-02-01T03:50:32;5.07;;;3.72;;
826;SDS011;395;48.132;11.608;2023-02-01T03:55:29;5.10;;;4.05;;
826;SDS011;395;48.132;11.608;2023-02-01T03:58:04;4.65;;;4.13;;
826;SDS011;395;48.132;11.608;2023-02-01T04:00:36;7.30;;;4.28;;
826;SDS011;395;48.132;11.608;2023-02-01T04:03:03;4.47;;;3.90;;
826;SDS011;395;48.132;11.608;2023-02-01T04:05:30;5.22;;;4.32;;
826;SDS011;395;48.132;11.608;2023-02-01T04:07:56;4.27;;;3.70;;
826;SDS011;395;48.132;11.608;2023-02-01T04:10:22;5.15;;;3.90;;
826;SDS011;395;48.132;11.608;2023-02-01T04:12:47;7.83;;;4.40;;
826;SDS011;395;48.132;11.608;2023-02-01T04:15:13;7.30;;;4.07;;
826;SDS011;395;48.132;11.608;2023-02-01T04:17:39;5.40;;;3.83;;
826;SDS011;395;48.132;11.608;2023-02-01T04:20:05;3.90;;;3.43;;
826;SDS011;395;48.132;11.608;2023-02-01T04:22:31;6.10;;;3.83;;
826;SDS011;395;48.132;11.608;2023-02-01T04:24:57;4.97;;;3.92;;
826;SDS011;395;48.132;11.608;2023-02-01T04:27:23;4.60;;;3.73;;
826;SDS011;395;48.132;11.608;2023-02-01T04:29:48;4.73;;;3.80;;
826;SDS011;395;48.132;11.608;2023-02-01T04:32:15;6.20;;;4.20;;
826;SDS011;395;48.132;11.608;2023-02-01T04:34:41;4.13;;;3.72;;
826;SDS011;395;48.132;11.608;2023-02-01T04:37:07;4.27;;;3.80;;
826;SDS011;395;48.132;11.608;2023-02-01T04:39:33;6.20;;;3.70;;
826;SDS011;395;48.132;11.608;2023-02-01T04:41:58;5.53;;;4.30;;
826;SDS011;395;48.132;11.608;2023-02-01T04:44:24;5.90;;;3.87;;
826;SDS011;395;48.132;11.608;2023-02-01T04:46:50;4.73;;;4.33;;
826;SDS011;395;48.132;11.608;2023-02-01T04:49:15;5.17;;;3.90;;
826;SDS011;395;48.132;11.608;2023-02-01T04:51:41;6.03;;;4.20;;
826;SDS011;395;48.132;11.608;2023-02-01T04:54:07;5.60;;;3.80;;
826;SDS011;395;48.132;11.608;2023-02-01T04:56:36;4.53;;;4.05;;
826;SDS011;395;48.132;11.608;2023-02-01T04:59:02;5.03;;;4.35;;
826;SDS011;395;48.132;11.608;2023-02-01T05:01:28;6.32;;;4.80;;
826;SDS011;395;48.132;11.608;2023-02-01T05:03:54;5.00;;;4.50;;
826;SDS011;395;48.132;11.608;2023-02-01T05:06:20;4.90;;;3.90;;
826;SDS011;395;48.132;11.608;2023-02-01T05:08:46;4.80;;;4.28;;
826;SDS011;395;48.132;11.608;2023-02-01T05:11:12;6.83;;;5.40;;
826;SDS011;395;48.132;11.608;2023-02-01T05:14:00;5.88;;;4.90;;
826;SDS011;395;48.132;11.608;2023-02-01T05:16:26;6.20;;;4.50;;
826;SDS011;395;48.132;11.608;2023-02-01T05:18:52;8.45;;;6.05;;
826;SDS011;395;48.132;11.608;2023-02-01T05:21:18;5.32;;;4.55;;
826;SDS011;395;48.132;11.608;2023-02-01T05:23:44;5.53;;;4.30;;
826;SDS011;395;48.132;11.608;2023-02-01T05:26:28;8.18;;;5.25;;
826;SDS011;395;48.132;11.608;2023-02-01T05:28:54;5.47;;;4.17;;
826;SDS011;395;48.132;11.608;2023-02-01T05:31:20;5.60;;;4.50;;
826;SDS011;395;48.132;11.608;2023-02-01T05:33:46;5.00;;;4.45;;
826;SDS011;395;48.132;11.608;2023-02-01T05:36:12;5.57;;;4.27;;
826;SDS011;395;48.132;11.608;2023-02-01T05:38:38;5.47;;;4.57;;
826;SDS011;395;48.132;11.608;2023-02-01T05:41:04;6.70;;;5.20;;
826;SDS011;395;48.132;11.608;2023-02-01T05:43:29;5.10;;;4.33;;
826;SDS011;395;48.132;11.608;2023-02-01T05:45:55;5.60;;;4.53;;
826;SDS011;395;48.132;11.608;2023-02-01T05:48:21;7.07;;;4.87;;
826;SDS011;395;48.132;11.608;2023-02-01T05:50:46;6.80;;;5.40;;
826;SDS011;395;48.132;11.608;2023-02-01T05:53:12;6.70;;;4.77;;
826;SDS011;395;48.132;11.608;2023-02-01T05:55:38;5.93;;;4.50;;
826;SDS011;395;48.132;11.608;2023-02-01T05:58:04;5.85;;;4.63;;
826;SDS011;395;48.132;11.608;2023-02-01T06:00:30;8.35;;;5.32;;
826;SDS011;395;48.132;11.608;2023-02-01T06:02:56;5.67;;;4.73;;
826;SDS011;395;48.132;11.608;2023-02-01T06:05:22;5.37;;;4.63;;
826;SDS011;395;48.132;11.608;2023-02-01T06:07:48;6.27;;;4.80;;
826;SDS011;395;48.132;11.608;2023-02-01T06:10:14;6.00;;;5.00;;
826;SDS011;395;48.132;11.608;2023-02-01T06:12:41;7.05;;;4.50;;
826;SDS011;395;48.132;11.608;2023-02-01T06:15:07;5.80;;;4.50;;
826;SDS011;395;48.132;11.608;2023-02-01T06:17:33;5.90;;;4.78;;
826;SDS011;395;48.132;11.608;2023-02-01T06:19:59;6.63;;;4.80;;
826;SDS011;395;48.132;11.608;2023-02-01T06:22:25;6.60;;;4.70;;
826;SDS011;395;48.132;11.608;2023-02-01T06:24:50;5.50;;;4.40;;
826;SDS011;395;48.132;11.608;2023-02-01T06:27:16;8.03;;;4.37;;
826;SDS011;395;48.132;11.608;2023-02-01T06:29:42;5.00;;;4.30;;
826;SDS011;395;48.132;11.608;2023-02-01T06:32:07;6.20;;;4.67;;
826;SDS011;395;48.132;11.608;2023-02-01T06:34:33;7.80;;;4.50;;
826;SDS011;395;48.132;11.608;2023-02-01T06:36:59;5.50;;;4.55;;
826;SDS011;395;48.132;11.608;2023-02-01T06:39:25;6.17;;;4.53;;
826;SDS011;395;48.132;11.608;2023-02-01T06:41:52;5.63;;;4.00;;
826;SDS011;395;48.132;11.608;2023-02-01T06:44:18;6.40;;;4.83;;
826;SDS011;395;48.132;11.608;2023-02-01T06:46:43;5.90;;;4.23;;
826;SDS011;395;48.132;11.608;2023-02-01T06:49:09;6.30;;;4.27;;
826;SDS011;395;48.132;11.608;2023-02-01T06:51:35;6.27;;;4.20;;
826;SDS011;395;48.132;11.608;2023-02-01T06:54:00;5.57;;;4.70;;
826;SDS011;395;48.132;11.608;2023-02-01T06:56:27;6.03;;;4.63;;
826;SDS011;395;48.132;11.608;2023-02-01T06:58:53;5.05;;;4.10;;
826;SDS011;395;48.132;11.608;2023-02-01T07:01:19;6.50;;;4.13;;
826;SDS011;395;48.132;11.608;2023-02-01T07:03:48;4.03;;;3.60;;
826;SDS011;395;48.132;11.608;2023-02-01T07:06:15;7.10;;;4.30;;
826;SDS011;395;48.132;11.608;2023-02-01T07:08:42;7.28;;;4.35;;
826;SDS011;395;48.132;11.608;2023-02-01T07:11:09;5.20;;;4.45;;
826;SDS011;395;48.132;11.608;2023-02-01T07:13:36;5.57;;;4.97;;
826;SDS011;395;48.132;11.608;2023-02-01T07:16:03;4.85;;;3.92;;
826;SDS011;395;48.132;11.608;2023-02-01T07:18:30;6.00;;;4.57;;
826;SDS011;395;48.132;11.608;2023-02-01T07:20:57;5.15;;;3.30;;
826;SDS011;395;48.132;11.608;2023-02-01T07:23:23;4.85;;;3.20;;
826;SDS011;395;48.132;11.608;2023-02-01T07:25:53;6.32;;;4.00;;
826;SDS011;395;48.132;11.608;2023-02-01T07:28:19;4.32;;;3.45;;
826;SDS011;395;48.132;11.608;2023-02-01T07:30:45;6.00;;;3.90;;
826;SDS011;395;48.132;11.608;2023-02-01T07:33:23;5.03;;;3.50;;
826;SDS011;395;48.132;11.608;2023-02-01T07:35:50;8.98;;;3.45;;
826;SDS011;395;48.132;11.608;2023-02-01T07:38:16;3.93;;;3.00;;
826;SDS011;395;48.132;11.608;2023-02-01T07:40:42;3.95;;;3.40;;
826;SDS011;395;48.132;11.608;2023-02-01T07:43:08;4.57;;;3.53;;
826;SDS011;395;48.132;11.608;2023-02-01T07:45:35;6.13;;;3.33;;
826;SDS011;395;48.132;11.608;2023-02-01T07:48:01;3.80;;;3.30;;
826;SDS011;395;48.132;11.608;2023-02-01T07:50:27;3.93;;;3.33;;
826;SDS011;395;48.132;11.608;2023-02-01T07:52:52;3.40;;;3.00;;
826;SDS011;395;48.132;11.608;2023-02-01T07:55:18;3.93;;;2.60;;
826;SDS011;395;48.132;11.608;2023-02-01T07:57:45;7.28;;;3.72;;
826;SDS011;395;48.132;11.608;2023-02-01T08:00:11;5.33;;;3.27;;
826;SDS011;395;48.132;11.608;2023-02-01T08:02:59;4.75;;;3.08;;
826;SDS011;395;48.132;11.608;2023-02-01T08:05:25;2.70;;;2.50;;
826;SDS011;395;48.132;11.608;2023-02-01T08:07:50;4.50;;;3.30;;
826;SDS011;395;48.132;11.608;2023-02-01T08:10:16;6.90;;;3.10;;
826;SDS011;395;48.132;11.608;2023-02-01T08:12:43;3.42;;;2.45;;
826;SDS011;395;48.132;11.608;2023-02-01T08:15:12;3.40;;;2.30;;
826;SDS011;395;48.132;11.608;2023-02-01T08:17:50;3.55;;;2.90;;
826;SDS011;395;48.132;11.608;2023-02-01T08:20:17;4.28;;;2.85;;
826;SDS011;395;48.132;11.608;2023-02-01T08:22:44;3.13;;;2.45;;
826;SDS011;395;48.132;11.608;2023-02-01T08:25:10;2.50;;;2.30;;
826;SDS011;395;48.132;11.608;2023-02-01T08:27:36;4.03;;;2.80;;
826;SDS011;395;48.132;11.608;2023-02-01T08:30:02;4.20;;;2.90;;
826;SDS011;395;48.132;11.608;2023-02-01T08:32:29;5.43;;;2.85;;
826;SDS011;395;48.132;11.608;2023-02-01T08:34:55;3.30;;;3.00;;
826;SDS011;395;48.132;11.608;2023-02-01T08:37:21;3.57;;;2.67;;
826;SDS011;395;48.132;11.608;2023-02-01T08:39:47;3.28;;;2.58;;
826;SDS011;395;48.132;11.608;2023-02-01T08:42:15;2.88;;;2.20;;
826;SDS011;395;48.132;11.608;2023-02-01T08:45:00;3.70;;;3.03;;
826;SDS011;395;48.132;11.608;2023-02-01T08:47:25;3.73;;;2.67;;
826;SDS011;395;48.132;11.608;2023-02-01T08:49:51;6.90;;;2.90;;
826;SDS011;395;48.132;11.608;2023-02-01T08:52:18;4.28;;;2.70;;
826;SDS011;395;48.132;11.608;2023-02-01T08:54:43;4.30;;;2.90;;
826;SDS011;395;48.132;11.608;2023-02-01T08:57:09;3.73;;;2.40;;
826;SDS011;395;48.132;11.608;2023-02-01T08:59:35;4.60;;;2.63;;
826;SDS011;395;48.132;11.608;2023-02-01T09:02:00;2.70;;;2.50;;
826;SDS011;395;48.132;11.608;2023-02-01T09:04:26;3.07;;;2.40;;
826;SDS011;395;48.132;11.608;2023-02-01T09:06:52;3.40;;;2.80;;
826;SDS011;395;48.132;11.608;2023-02-01T09:09:20;3.17;;;2.65;;
826;SDS011;395;48.132;11.608;2023-02-01T09:11:49;3.35;;;2.65;;
826;SDS011;395;48.132;11.608;2023-02-01T09:14:15;3.17;;;2.80;;
826;SDS011;395;48.132;11.608;2023-02-01T09:16:41;4.75;;;3.00;;
826;SDS011;395;48.132;11.608;2023-02-01T09:19:07;3.93;;;3.40;;
826;SDS011;395;48.132;11.608;2023-02-01T09:21:33;4.80;;;2.70;;
826;SDS011;395;48.132;11.608;2023-02-01T09:23:59;7.22;;;3.35;;
826;SDS011;395;48.132;11.608;2023-02-01T09:26:25;3.60;;;3.00;;
826;SDS011;395;48.132;11.608;2023-02-01T09:28:51;5.30;;;3.00;;
826;SDS011;395;48.132;11.608;2023-02-01T09:31:17;4.00;;;3.10;;
826;SDS011;395;48.132;11.608;2023-02-01T09:33:42;3.80;;;2.60;;
826;SDS011;395;48.132;11.608;2023-02-01T09:36:08;5.70;;;3.13;;
826;SDS011;395;48.132;11.608;2023-02-01T09:38:34;4.40;;;2.80;;
826;SDS011;395;48.132;11.608;2023-02-01T09:41:00;2.43;;;2.20;;
826;SDS011;395;48.132;11.608;2023-02-01T09:43:37;2.50;;;2.30;;
826;SDS011;395;48.132;11.608;2023-02-01T09:46:23;4.80;;;3.05;;
826;SDS011;395;48.132;11.608;2023-02-01T09:48:54;3.67;;;2.65;;
826;SDS011;395;48.132;11.608;2023-02-01T09:51:25;3.40;;;2.30;;
826;SDS011;395;48.132;11.608;2023-02-01T09:54:09;3.05;;;2.40;;
826;SDS011;395;48.132;11.608;2023-02-01T09:59:38;4.50;;;2.70;;
826;SDS011;395;48.132;11.608;2023-02-01T10:02:14;7.80;;;3.00;;
826;SDS011;395;48.132;11.608;2023-02-01T10:04:44;5.18;;;3.20;;
826;SDS011;395;48.132;11.608;2023-02-01T10:10:01;4.47;;;2.85;;
826;SDS011;395;48.132;11.608;2023-02-01T10:15:57;3.67;;;2.70;;
826;SDS011;395;48.132;11.608;2023-02-01T10:21:37;2.90;;;2.63;;
826;SDS011;395;48.132;11.608;2023-02-01T10:26:39;5.25;;;3.35;;
826;SDS011;395;48.132;11.608;2023-02-01T10:29:14;3.47;;;2.40;;
826;SDS011;395;48.132;11.608;2023-02-01T10:31:44;4.88;;;3.00;;
826;SDS011;395;48.132;11.608;2023-02-01T10:34:14;3.80;;;2.83;;
826;SDS011;395;48.132;11.608;2023-02-01T10:36:55;4.60;;;2.90;;
826;SDS011;395;48.132;11.608;2023-02-01T10:39:22;3.55;;;2.58;;
826;SDS011;395;48.132;11.608;2023-02-01T10:41:48;3.20;;;2.60;;
826;SDS011;395;48.132;11.608;2023-02-01T10:44:18;3.90;;;2.55;;
826;SDS011;395;48.132;11.608;2023-02-01T10:46:49;3.05;;;2.47;;
826;SDS011;395;48.132;11.608;2023-02-01T10:49:19;2.42;;;2.22;;
826;SDS011;395;48.132;11.608;2023-02-01T10:54:47;3.83;;;2.95;;
826;SDS011;395;48.132;11.608;2023-02-01T10:57:23;3.43;;;2.47;;
826;SDS011;395;48.132;11.608;2023-02-01T10:59:51;4.53;;;3.05;;
826;SDS011;395;48.132;11.608;2023-02-01T11:02:25;4.03;;;2.83;;
826;SDS011;395;48.132;11.608;2023-02-01T11:05:07;3.15;;;2.75;;
826;SDS011;395;48.132;11.608;2023-02-01T11:07:35;3.70;;;3.10;;
826;SDS011;395;48.132;11.608;2023-02-01T11:10:02;3.53;;;2.90;;
826;SDS011;395;48.132;11.608;2023-02-01T11:12:33;3.50;;;3.20;;
826;SDS011;395;48.132;11.608;2023-02-01T11:15:13;5.50;;;3.00;;
826;SDS011;395;48.132;11.608;2023-02-01T11:17:49;3.78;;;2.72;;
826;SDS011;395;48.132;11.608;2023-02-01T11:20:21;3.42;;;3.13;;
826;SDS011;395;48.132;11.608;2023-02-01T11:22:57;5.65;;;3.72;;
826;SDS011;395;48.132;11.608;2023-02-01T11:25:23;4.38;;;3.08;;
826;SDS011;395;48.132;11.608;2023-02-01T11:27:50;3.25;;;2.90;;
826;SDS011;395;48.132;11.608;2023-02-01T11:30:22;4.82;;;3.13;;
826;SDS011;395;48.132;11.608;2023-02-01T11:33:05;6.50;;;3.20;;
826;SDS011;395;48.132;11.608;2023-02-01T11:35:32;3.92;;;3.15;;
826;SDS011;395;48.132;11.608;2023-02-01T11:38:09;4.13;;;2.78;;
826;SDS011;395;48.132;11.608;2023-02-01T11:40:38;4.57;;;3.22;;
826;SDS011;395;48.132;11.608;2023-02-01T11:43:24;4.83;;;3.10;;
826;SDS011;395;48.132;11.608;2023-02-01T11:45:54;2.90;;;2.70;;
826;SDS011;395;48.132;11.608;2023-02-01T11:48:23;7.50;;;3.85;;
826;SDS011;395;48.132;11.608;2023-02-01T11:59:04;3.60;;;3.20;;
826;SDS011;395;48.132;11.608;2023-02-01T12:01:51;4.25;;;3.45;;
826;SDS011;395;48.132;11.608;2023-02-01T12:07:28;6.38;;;3.67;;
826;SDS011;395;48.132;11.608;2023-02-01T12:10:27;5.57;;;3.90;;
826;SDS011;395;48.132;11.608;2023-02-01T12:26:54;5.20;;;3.97;;
826;SDS011;395;48.132;11.608;2023-02-01T12:38:22;4.13;;;3.38;;
826;SDS011;395;48.132;11.608;2023-02-01T12:43:47;9.10;;;3.25;;
826;SDS011;395;48.132;11.608;2023-02-01T12:49:29;3.67;;;3.37;;
826;SDS011;395;48.132;11.608;2023-02-01T12:51:39;6.15;;;3.55;;
826;SDS011;395;48.132;11.608;2023-02-01T13:05:28;4.38;;;3.00;;
826;SDS011;395;48.132;11.608;2023-02-01T13:08:23;4.60;;;3.47;;
826;SDS011;395;48.132;11.608;2023-02-01T13:11:04;3.50;;;3.20;;
826;SDS011;395;48.132;11.608;2023-02-01T13:18:49;5.85;;;3.30;;
826;SDS011;395;48.132;11.608;2023-02-01T13:21:21;5.32;;;3.20;;
826;SDS011;395;48.132;11.608;2023-02-01T13:23:52;5.03;;;3.33;;
826;SDS011;395;48.132;11.608;2023-02-01T13:26:18;4.43;;;2.90;;
826;SDS011;395;48.132;11.608;2023-02-01T13:42:20;3.88;;;3.08;;
826;SDS011;395;48.132;11.608;2023-02-01T13:44:55;3.90;;;3.00;;
826;SDS011;395;48.132;11.608;2023-02-01T13:47:30;3.15;;;2.83;;
826;SDS011;395;48.132;11.608;2023-02-01T13:50:03;3.13;;;2.70;;
826;SDS011;395;48.132;11.608;2023-02-01T13:52:44;3.90;;;3.15;;
826;SDS011;395;48.132;11.608;2023-02-01T13:57:46;4.57;;;3.25;;
826;SDS011;395;48.132;11.608;2023-02-01T14:06:42;3.97;;;3.22;;
826;SDS011;395;48.132;11.608;2023-02-01T14:11:36;4.90;;;3.17;;
826;SDS011;395;48.132;11.608;2023-02-01T14:16:40;6.32;;;3.00;;
826;SDS011;395;48.132;11.608;2023-02-01T14:21:53;5.55;;;2.78;;
826;SDS011;395;48.132;11.608;2023-02-01T14:24:35;4.15;;;2.97;;
826;SDS011;395;48.132;11.608;2023-02-01T14:29:37;4.40;;;2.33;;
826;SDS011;395;48.132;11.608;2023-02-01T14:32:15;5.35;;;2.72;;
826;SDS011;395;48.132;11.608;2023-02-01T14:44:43;3.42;;;2.65;;
826;SDS011;395;48.132;11.608;2023-02-01T14:47:26;3.60;;;3.20;;
826;SDS011;395;48.132;11.608;2023-02-01T14:52:35;3.80;;;2.72;;
826;SDS011;395;48.132;11.608;2023-02-01T14:55:12;3.95;;;2.58;;
826;SDS011;395;48.132;11.608;2023-02-01T14:57:59;3.78;;;3.10;;
826;SDS011;395;48.132;11.608;2023-02-01T15:00:30;5.93;;;3.50;;
826;SDS011;395;48.132;11.608;2023-02-01T15:03:12;2.42;;;2.22;;
826;SDS011;395;48.132;11.608;2023-02-01T15:06:03;5.30;;;2.88;;
826;SDS011;395;48.132;11.608;2023-02-01T15:08:35;3.42;;;2.50;;
826;SDS011;395;48.132;11.608;2023-02-01T15:11:06;5.30;;;2.63;;
826;SDS011;395;48.132;11.608;2023-02-01T15:13:36;4.65;;;2.72;;
826;SDS011;395;48.132;11.608;2023-02-01T15:16:09;4.57;;;3.00;;
826;SDS011;395;48.132;11.608;2023-02-01T15:18:37;4.93;;;2.67;;
826;SDS011;395;48.132;11.608;2023-02-01T15:21:03;5.83;;;2.53;;
826;SDS011;395;48.132;11.608;2023-02-01T15:23:30;7.40;;;3.33;;
826;SDS011;395;48.132;11.608;2023-02-01T15:25:57;4.60;;;2.60;;
826;SDS011;395;48.132;11.608;2023-02-01T15:28:24;2.72;;;2.40;;
826;SDS011;395;48.132;11.608;2023-02-01T15:30:52;6.00;;;2.80;;
826;SDS011;395;48.132;11.608;2023-02-01T15:33:19;3.80;;;3.03;;
826;SDS011;395;48.132;11.608;2023-02-01T15:35:48;4.13;;;3.10;;
826;SDS011;395;48.132;11.608;2023-02-01T15:43:37;3.17;;;2.13;;
826;SDS011;395;48.132;11.608;2023-02-01T15:46:09;4.68;;;2.70;;
826;SDS011;395;48.132;11.608;2023-02-01T15:48:38;6.78;;;2.55;;
826;SDS011;395;48.132;11.608;2023-02-01T15:51:13;2.85;;;2.10;;
826;SDS011;395;48.132;11.608;2023-02-01T15:53:50;2.50;;;2.10;;
826;SDS011;395;48.132;11.608;2023-02-01T15:56:25;3.72;;;2.50;;
826;SDS011;395;48.132;11.608;2023-02-01T15:58:59;3.97;;;3.22;;
826;SDS011;395;48.132;11.608;2023-02-01T16:01:27;3.53;;;2.78;;
826;SDS011;395;48.132;11.608;2023-02-01T16:06:53;4.47;;;2.83;;
826;SDS011;395;48.132;11.608;2023-02-01T16:09:34;4.07;;;2.28;;
826;SDS011;395;48.132;11.608;2023-02-01T16:12:20;4.18;;;2.65;;
826;SDS011;395;48.132;11.608;2023-02-01T16:14:51;4.65;;;2.40;;
826;SDS011;395;48.132;11.608;2023-02-01T16:17:17;5.30;;;2.97;;
826;SDS011;395;48.132;11.608;2023-02-01T16:19:42;3.60;;;2.70;;
826;SDS011;395;48.132;11.608;2023-02-01T16:22:08;4.70;;;2.47;;
826;SDS011;395;48.132;11.608;2023-02-01T16:24:34;5.40;;;2.57;;
826;SDS011;395;48.132;11.608;2023-02-01T16:26:59;4.93;;;2.20;;
826;SDS011;395;48.132;11.608;2023-02-01T16:29:25;3.47;;;2.10;;
826;SDS011;395;48.132;11.608;2023-02-01T16:31:50;1.90;;;1.63;;
826;SDS011;395;48.132;11.608;2023-02-01T16:34:17;4.65;;;2.25;;
826;SDS011;395;48.132;11.608;2023-02-01T16:36:43;4.10;;;2.40;;
826;SDS011;395;48.132;11.608;2023-02-01T16:39:16;5.55;;;2.42;;
826;SDS011;395;48.132;11.608;2023-02-01T16:41:43;4.78;;;2.50;;
826;SDS011;395;48.132;11.608;2023-02-01T16:44:10;6.32;;;2.75;;
826;SDS011;395;48.132;11.608;2023-02-01T16:46:38;5.67;;;2.73;;
826;SDS011;395;48.132;11.608;2023-02-01T16:49:05;7.78;;;2.72;;
826;SDS011;395;48.132;11.608;2023-02-01T16:51:50;4.53;;;2.40;;
826;SDS011;395;48.132;11.608;2023-02-01T16:54:20;4.18;;;2.88;;
826;SDS011;395;48.132;11.608;2023-02-01T16:56:46;4.40;;;2.37;;
826;SDS011;395;48.132;11.608;2023-02-01T16:59:12;8.53;;;2.60;;
826;SDS011;395;48.132;11.608;2023-02-01T17:01:38;3.85;;;2.90;;
826;SDS011;395;48.132;11.608;2023-02-01T17:04:06;4.03;;;2.03;;
826;SDS011;395;48.132;11.608;2023-02-01T17:06:32;4.63;;;2.70;;
826;SDS011;395;48.132;11.608;2023-02-01T17:09:01;5.60;;;3.15;;
826;SDS011;395;48.132;11.608;2023-02-01T17:11:28;4.85;;;2.85;;
826;SDS011;395;48.132;11.608;2023-02-01T17:13:55;3.85;;;2.78;;
826;SDS011;395;48.132;11.608;2023-02-01T17:16:27;6.00;;;2.72;;
826;SDS011;395;48.132;11.608;2023-02-01T17:18:56;4.22;;;2.65;;
826;SDS011;395;48.132;11.608;2023-02-01T17:21:24;3.58;;;2.55;;
826;SDS011;395;48.132;11.608;2023-02-01T17:23:51;3.47;;;2.45;;
826;SDS011;395;48.132;11.608;2023-02-01T17:26:17;5.60;;;2.50;;
826;SDS011;395;48.132;11.608;2023-02-01T17:28:44;5.38;;;2.90;;
826;SDS011;395;48.132;11.608;2023-02-01T17:31:13;6.27;;;3.20;;
826;SDS011;395;48.132;11.608;2023-02-01T17:33:43;7.35;;;2.90;;
826;SDS011;395;48.132;11.608;2023-02-01T17:36:11;7.20;;;2.80;;
826;SDS011;395;48.132;11.608;2023-02-01T17:38:38;6.65;;;2.72;;
826;SDS011;395;48.132;11.608;2023-02-01T17:41:04;6.30;;;2.60;;
826;SDS011;395;48.132;11.608;2023-02-01T17:43:30;4.93;;;2.50;;
826;SDS011;395;48.132;11.608;2023-02-01T17:46:15;4.73;;;2.77;;
826;SDS011;395;48.132;11.608;2023-02-01T17:48:42;4.55;;;2.10;;
826;SDS011;395;48.132;11.608;2023-02-01T17:51:13;4.43;;;2.97;;
826;SDS011;395;48.132;11.608;2023-02-01T17:53:41;4.45;;;2.50;;
826;SDS011;395;48.132;11.608;2023-02-01T17:56:10;3.70;;;2.47;;
826;SDS011;395;48.132;11.608;2023-02-01T17:58:41;6.05;;;2.83;;
826;SDS011;395;48.132;11.608;2023-02-01T18:01:14;8.15;;;2.80;;
826;SDS011;395;48.132;11.608;2023-02-01T18:03:44;7.25;;;2.75;;
826;SDS011;395;48.132;11.608;2023-02-01T18:06:14;4.70;;;2.35;;
826;SDS011;395;48.132;11.608;2023-02-01T18:08:41;7.43;;;2.55;;
826;SDS011;395;48.132;11.608;2023-02-01T18:11:17;4.82;;;2.30;;
826;SDS011;395;48.132;11.608;2023-02-01T18:13:44;7.00;;;2.88;;
826;SDS011;395;48.132;11.608;2023-02-01T18:16:30;3.67;;;2.53;;
826;SDS011;395;48.132;11.608;2023-02-01T18:18:57;5.75;;;2.70;;
826;SDS011;395;48.132;11.608;2023-02-01T18:21:26;4.15;;;2.70;;
826;SDS011;395;48.132;11.608;2023-02-01T18:24:13;2.30;;;1.52;;
826;SDS011;395;48.132;11.608;2023-02-01T18:26:40;3.05;;;2.00;;
826;SDS011;395;48.132;11.608;2023-02-01T18:29:07;7.07;;;3.00;;
826;SDS011;395;48.132;11.608;2023-02-01T18:31:32;6.13;;;2.50;;